Time;durP1;ratioP1;P1;durP2;ratioP2;P2;SDS_P1;SDS_P2;PMS_P1;PMS_P2;Temp;Humidity;BMP_temperature;BMP_pressure;BME280_temperature;BME280_humidity;BME280_pressure;Samples;Min_cycle;Max_cycle;Signal;HPM_P1;HPM_P2
2023/11/12 00:01:24;;;;;;;7.90;5.00;;;;;;;7.34;82.21;100674.94;4983796;28;20491;-74
2023/11/12 00:03:51;;;;;;;10.90;5.88;;;;;;;7.34;82.13;100668.03;4986618;28;20565;-74
2023/11/12 00:06:17;;;;;;;9.52;5.93;;;;;;;7.34;82.24;100669.75;4988894;28;20039;-74
2023/11/12 00:08:45;;;;;;;8.70;5.72;;;;;;;7.36;82.23;100673.22;4986213;28;20415;-73
2023/11/12 00:11:14;;;;;;;10.20;6.22;;;;;;;7.36;82.17;100671.47;4988920;28;20458;-74
2023/11/12 00:13:41;;;;;;;10.23;5.28;;;;;;;7.37;82.47;100673.22;4985151;28;20050;-74
2023/11/12 00:16:07;;;;;;;8.93;4.90;;;;;;;7.36;82.14;100670.63;4986219;28;20081;-74
2023/11/12 00:18:35;;;;;;;10.65;5.20;;;;;;;7.37;82.45;100669.72;4989494;28;20057;-73
2023/11/12 00:21:02;;;;;;;7.97;4.68;;;;;;;7.38;82.15;100669.72;4988310;28;20056;-73
2023/11/12 00:23:29;;;;;;;7.53;5.05;;;;;;;7.38;81.86;100672.34;4987608;28;20658;-74
2023/11/12 00:25:55;;;;;;;6.63;4.88;;;;;;;7.38;82.04;100671.47;4987199;28;20053;-74
2023/11/12 00:28:24;;;;;;;9.73;3.88;;;;;;;7.38;82.17;100672.34;4989312;28;20050;-73
2023/11/12 00:30:50;;;;;;;4.72;3.53;;;;;;;7.39;81.90;100678.38;4983485;28;20049;-74
2023/11/12 00:33:17;;;;;;;5.47;3.28;;;;;;;7.38;82.17;100674.94;4988048;28;20046;-74
2023/11/12 00:35:44;;;;;;;10.75;4.35;;;;;;;7.39;81.60;100679.25;4988218;28;20049;-74
2023/11/12 00:38:11;;;;;;;4.40;3.30;;;;;;;7.37;81.59;100670.63;4989275;28;20051;-74
2023/11/12 00:40:38;;;;;;;6.13;2.47;;;;;;;7.40;81.99;100680.13;4990233;28;20101;-74
2023/11/12 00:43:05;;;;;;;4.10;2.03;;;;;;;7.38;81.61;100682.72;4996545;28;20043;-81
2023/11/12 00:45:33;;;;;;;2.40;1.73;;;;;;;7.37;81.84;100678.41;4991064;28;20054;-81
2023/11/12 00:48:00;;;;;;;5.60;1.20;;;;;;;7.34;80.56;100681.03;4995577;28;20050;-82
2023/11/12 00:50:27;;;;;;;3.28;0.98;;;;;;;7.31;80.74;100682.78;4993382;28;20855;-81
2023/11/12 00:52:54;;;;;;;1.13;1.13;;;;;;;7.29;81.13;100687.13;4993167;28;20415;-82
2023/11/12 00:55:21;;;;;;;2.38;0.98;;;;;;;7.28;81.06;100686.25;4986642;28;20056;-81
2023/11/12 00:57:48;;;;;;;1.92;0.70;;;;;;;7.28;80.95;100675.84;4995556;28;20109;-81
2023/11/12 01:00:16;;;;;;;0.70;0.70;;;;;;;7.27;81.20;100679.34;4995855;28;20053;-81
2023/11/12 01:02:44;;;;;;;2.70;1.88;;;;;;;7.25;80.96;100678.47;4989055;28;20049;-71
2023/11/12 01:05:11;;;;;;;0.90;0.70;;;;;;;7.26;81.09;100682.81;4991544;28;20129;-71
2023/11/12 01:07:38;;;;;;;2.50;0.90;;;;;;;7.25;81.05;100681.06;4990376;28;20050;-71
2023/11/12 01:10:06;;;;;;;2.38;0.80;;;;;;;7.25;81.04;100681.06;4991809;28;20048;-71
2023/11/12 01:12:33;;;;;;;1.23;0.80;;;;;;;7.25;80.58;100675.88;4990211;28;20085;-71
2023/11/12 01:15:00;;;;;;;1.00;0.85;;;;;;;7.23;80.85;100669.84;4990572;28;20142;-71
2023/11/12 01:17:27;;;;;;;1.08;0.77;;;;;;;7.24;80.83;100674.16;4992099;28;20154;-71
2023/11/12 01:19:56;;;;;;;1.23;1.15;;;;;;;7.23;80.75;100672.44;4988864;28;20073;-71
2023/11/12 01:22:23;;;;;;;3.20;1.05;;;;;;;7.23;80.71;100672.44;4990474;28;20046;-71
2023/11/12 01:24:50;;;;;;;2.67;0.90;;;;;;;7.22;80.55;100665.50;4985695;28;20212;-71
2023/11/12 01:27:17;;;;;;;1.77;0.95;;;;;;;7.22;80.87;100673.31;4988853;28;20046;-71
2023/11/12 01:29:43;;;;;;;1.58;0.75;;;;;;;7.22;81.01;100675.91;4992218;28;20073;-71
2023/11/12 01:32:10;;;;;;;4.80;0.73;;;;;;;7.22;80.47;100675.91;4990990;28;20387;-71
2023/11/12 01:34:37;;;;;;;0.80;0.80;;;;;;;7.20;80.94;100672.47;4989941;28;20061;-71
2023/11/12 01:37:05;;;;;;;2.20;1.00;;;;;;;7.21;80.49;100676.78;4990580;28;20052;-71
2023/11/12 01:39:32;;;;;;;1.30;0.80;;;;;;;7.20;80.43;100673.31;4986905;28;20514;-70
2023/11/12 01:42:00;;;;;;;1.70;0.80;;;;;;;7.20;81.00;100668.13;4990242;28;20101;-71
2023/11/12 01:44:26;;;;;;;1.35;0.95;;;;;;;7.19;80.59;100666.38;4991420;28;20058;-70
2023/11/12 01:46:55;;;;;;;1.13;0.90;;;;;;;7.16;80.87;100660.34;4991101;28;20052;-71
2023/11/12 01:49:22;;;;;;;1.77;1.00;;;;;;;7.19;80.90;100666.38;4990941;28;20909;-72
2023/11/12 01:51:50;;;;;;;1.27;0.70;;;;;;;7.18;80.83;100669.00;4989122;28;20054;-73
2023/11/12 01:54:19;;;;;;;2.90;0.70;;;;;;;7.18;80.66;100675.06;4991107;28;20045;-74
2023/11/12 01:56:47;;;;;;;2.58;0.70;;;;;;;7.17;80.71;100662.06;4991040;28;20050;-74
2023/11/12 01:59:14;;;;;;;0.60;0.57;;;;;;;7.18;81.05;100669.88;4987737;28;20042;-74
2023/11/12 02:01:41;;;;;;;1.05;0.60;;;;;;;7.18;80.72;100664.66;4992665;28;20061;-74
2023/11/12 02:04:08;;;;;;;1.63;1.52;;;;;;;7.16;80.90;100666.41;4989701;28;20499;-74
2023/11/12 02:06:35;;;;;;;2.70;0.73;;;;;;;7.12;80.81;100661.25;4989270;28;20050;-74
2023/11/12 02:09:02;;;;;;;3.63;0.75;;;;;;;7.17;80.69;100672.47;4986138;28;20700;-74
2023/11/12 02:11:31;;;;;;;0.80;0.77;;;;;;;7.16;80.42;100665.56;4986913;28;20046;-74
2023/11/12 02:13:58;;;;;;;1.25;0.50;;;;;;;7.15;80.39;100666.44;4989255;28;20644;-74
2023/11/12 02:16:25;;;;;;;4.25;0.60;;;;;;;7.14;80.17;100672.47;4988600;28;20538;-74
2023/11/12 02:18:52;;;;;;;3.20;0.88;;;;;;;7.11;80.21;100673.34;4988879;28;20050;-75
2023/11/12 02:21:24;;;;;;;1.58;0.50;;;;;;;7.10;80.43;100675.97;4989166;28;20050;-74
2023/11/12 02:23:52;;;;;;;1.45;0.70;;;;;;;7.10;80.51;100681.19;4989518;28;20557;-75
2023/11/12 02:26:19;;;;;;;1.45;1.08;;;;;;;7.08;80.71;100669.94;4988057;28;20060;-74
2023/11/12 02:28:46;;;;;;;0.80;0.80;;;;;;;7.08;80.34;100670.78;4988602;28;20047;-77
2023/11/12 02:31:13;;;;;;;2.35;0.57;;;;;;;7.08;80.42;100672.53;4986047;28;20052;-74
2023/11/12 02:33:40;;;;;;;2.63;0.50;;;;;;;7.07;80.45;100673.41;4985968;28;20407;-74
2023/11/12 02:36:08;;;;;;;1.30;0.60;;;;;;;7.06;80.83;100677.75;4991088;28;20077;-74
2023/11/12 02:38:35;;;;;;;0.90;0.40;;;;;;;7.05;80.49;100677.75;4989728;28;20128;-73
2023/11/12 02:41:04;;;;;;;0.43;0.40;;;;;;;7.05;80.50;100682.94;4989824;28;20487;-73
2023/11/12 02:43:34;;;;;;;0.40;0.30;;;;;;;7.03;80.18;100680.34;4989727;28;20050;-73
2023/11/12 02:46:00;;;;;;;1.95;0.20;;;;;;;7.02;79.88;100673.41;4989472;28;20058;-74
2023/11/12 02:48:39;;;;;;;0.52;0.50;;;;;;;7.01;80.09;100676.03;4987380;28;20054;-74
2023/11/12 02:51:07;;;;;;;0.60;0.50;;;;;;;6.99;79.71;100683.81;4986421;28;20070;-73
2023/11/12 02:53:34;;;;;;;0.60;0.30;;;;;;;6.96;79.65;100669.13;4990186;28;20070;-74
2023/11/12 02:56:00;;;;;;;1.15;0.93;;;;;;;6.93;80.19;100669.13;4989538;28;20052;-73
2023/11/12 02:58:29;;;;;;;0.55;0.38;;;;;;;6.95;79.67;100675.19;4988457;28;20419;-74
2023/11/12 03:00:56;;;;;;;2.05;0.30;;;;;;;6.94;80.00;100675.19;4983546;28;20043;-78
2023/11/12 03:03:23;;;;;;;1.35;0.20;;;;;;;6.93;79.40;100676.94;4991405;28;20047;-78
2023/11/12 03:05:49;;;;;;;0.57;0.30;;;;;;;6.93;79.59;100678.66;5000654;28;20519;-78
2023/11/12 03:08:16;;;;;;;0.52;0.30;;;;;;;6.88;79.48;100668.28;4993114;28;20042;-79
2023/11/12 03:10:43;;;;;;;0.30;0.30;;;;;;;6.90;79.60;100666.56;4993351;28;20042;-78
2023/11/12 03:13:10;;;;;;;0.28;0.28;;;;;;;6.88;79.66;100673.47;4980995;28;20117;-78
2023/11/12 03:15:38;;;;;;;1.30;0.30;;;;;;;6.89;79.86;100667.44;4980544;28;20051;-79
2023/11/12 03:18:05;;;;;;;0.40;0.30;;;;;;;6.90;79.91;100674.34;4992971;28;20125;-78
2023/11/12 03:20:32;;;;;;;0.60;0.30;;;;;;;6.88;79.58;100670.88;4992162;28;20057;-78
2023/11/12 03:22:59;;;;;;;0.60;0.30;;;;;;;6.85;79.70;100668.31;4988723;28;20038;-75
2023/11/12 03:25:26;;;;;;;2.38;1.17;;;;;;;6.87;79.81;100673.50;4988700;28;20668;-75
2023/11/12 03:27:53;;;;;;;1.40;0.20;;;;;;;6.85;79.41;100670.91;4984687;28;20061;-76
2023/11/12 03:30:20;;;;;;;0.20;0.20;;;;;;;6.86;79.77;100672.66;4986181;28;20046;-75
2023/11/12 03:32:48;;;;;;;0.52;0.30;;;;;;;6.84;79.40;100661.41;4989117;28;20054;-75
2023/11/12 03:35:15;;;;;;;0.20;0.20;;;;;;;6.85;79.31;100664.84;4990477;28;20418;-75
2023/11/12 03:37:41;;;;;;;0.40;0.30;;;;;;;6.84;79.83;100664.00;4989758;28;20056;-75
2023/11/12 03:40:09;;;;;;;0.35;0.20;;;;;;;6.83;79.50;100670.06;4989457;28;20061;-75
2023/11/12 03:42:36;;;;;;;1.30;0.30;;;;;;;6.86;79.51;100671.75;4986118;28;20096;-75
2023/11/12 03:45:04;;;;;;;0.30;0.20;;;;;;;6.85;79.93;100670.06;4985841;28;20047;-75
2023/11/12 03:47:31;;;;;;;0.40;0.30;;;;;;;6.84;79.46;100669.19;4988342;28;20495;-75
2023/11/12 03:50:00;;;;;;;0.20;0.20;;;;;;;6.64;79.63;100632.94;4991008;28;20693;-75
2023/11/12 03:52:26;;;;;;;3.67;0.30;;;;;;;6.85;79.73;100660.53;4988737;28;20679;-75
2023/11/12 03:54:53;;;;;;;0.47;0.20;;;;;;;6.83;79.93;100662.28;4986968;28;20050;-75
2023/11/12 03:57:20;;;;;;;2.50;0.20;;;;;;;6.84;79.69;100665.75;4988307;28;20423;-74
2023/11/12 03:59:51;;;;;;;1.38;0.20;;;;;;;6.84;79.70;100674.38;4984940;28;20057;-76
2023/11/12 04:02:19;;;;;;;0.20;0.20;;;;;;;6.85;79.63;100675.25;4988239;28;20046;-75
2023/11/12 04:04:46;;;;;;;0.43;0.20;;;;;;;6.85;79.84;100675.25;4989014;28;20119;-75
2023/11/12 04:07:15;;;;;;;1.08;0.20;;;;;;;6.84;79.70;100674.38;4988960;28;20057;-75
2023/11/12 04:09:43;;;;;;;0.30;0.20;;;;;;;6.85;79.74;100676.09;4989713;28;20065;-75
2023/11/12 04:12:10;;;;;;;1.08;0.20;;;;;;;6.84;79.29;100671.78;4987345;28;20060;-75
2023/11/12 04:14:37;;;;;;;0.20;0.15;;;;;;;6.81;79.63;100665.75;4987956;28;20050;-75
2023/11/12 04:17:04;;;;;;;1.25;0.20;;;;;;;6.85;79.79;100675.25;4992471;28;20046;-75
2023/11/12 04:19:31;;;;;;;1.60;0.20;;;;;;;6.85;79.59;100685.63;4991447;28;20046;-75
2023/11/12 04:21:58;;;;;;;0.20;0.10;;;;;;;6.83;79.84;100683.06;4991109;28;20054;-75
2023/11/12 04:24:26;;;;;;;0.25;0.20;;;;;;;6.82;79.53;100681.31;4993737;28;20046;-75
2023/11/12 04:26:53;;;;;;;0.10;0.10;;;;;;;6.82;79.47;100680.44;4992273;28;20054;-74
2023/11/12 04:29:20;;;;;;;0.13;0.10;;;;;;;6.81;79.39;100679.59;4993749;28;20054;-75
2023/11/12 04:31:47;;;;;;;1.27;0.10;;;;;;;6.81;79.44;100682.19;4992568;28;20058;-73
2023/11/12 04:34:14;;;;;;;0.15;0.10;;;;;;;6.79;79.55;100675.28;4989042;28;20047;-74
2023/11/12 04:36:41;;;;;;;0.30;0.10;;;;;;;6.78;79.68;100673.56;4991889;28;20051;-73
2023/11/12 04:39:08;;;;;;;0.40;0.10;;;;;;;6.79;79.24;100676.13;4993716;28;20056;-73
2023/11/12 04:41:36;;;;;;;0.40;0.00;;;;;;;6.80;79.27;100669.19;4992315;28;20517;-74
2023/11/12 04:44:03;;;;;;;0.20;0.05;;;;;;;6.77;79.75;100675.28;4992973;28;20092;-74
2023/11/12 04:46:30;;;;;;;0.35;0.10;;;;;;;6.78;79.11;100674.41;4989037;28;20050;-75
2023/11/12 04:48:58;;;;;;;0.10;0.10;;;;;;;6.76;79.30;100679.59;4993694;28;20060;-74
2023/11/12 04:51:25;;;;;;;1.10;0.10;;;;;;;6.76;79.32;100681.34;4992534;28;20444;-74
2023/11/12 04:53:52;;;;;;;0.25;0.10;;;;;;;6.74;79.15;100680.47;4991360;28;20046;-74
2023/11/12 04:56:20;;;;;;;0.10;0.10;;;;;;;6.72;79.46;100671.84;4990405;28;20050;-73
2023/11/12 04:58:48;;;;;;;1.02;0.10;;;;;;;6.72;79.02;100674.44;4991279;28;20038;-74
2023/11/12 05:01:15;;;;;;;0.30;0.10;;;;;;;6.63;79.23;100662.38;4987311;28;20053;-74
2023/11/12 05:03:42;;;;;;;3.60;0.30;;;;;;;6.66;79.07;100680.53;4991652;28;20051;-74
2023/11/12 05:06:09;;;;;;;1.70;0.10;;;;;;;6.66;79.28;100679.63;4990746;28;20046;-74
2023/11/12 05:08:37;;;;;;;0.40;0.20;;;;;;;6.64;79.19;100678.81;4989394;28;20054;-73
2023/11/12 05:11:04;;;;;;;0.30;0.20;;;;;;;6.62;79.50;100684.00;4990197;28;20038;-73
2023/11/12 05:13:31;;;;;;;0.20;0.20;;;;;;;6.62;79.23;100689.19;4987008;28;20092;-74
2023/11/12 05:15:59;;;;;;;5.45;0.13;;;;;;;6.53;79.19;100669.31;4990581;28;20487;-73
2023/11/12 05:18:26;;;;;;;0.45;0.20;;;;;;;6.59;79.16;100684.00;4992849;28;20411;-74
2023/11/12 05:20:53;;;;;;;0.17;0.10;;;;;;;6.58;78.87;100691.81;4991087;28;20038;-75
2023/11/12 05:23:21;;;;;;;0.15;0.13;;;;;;;6.58;79.06;100684.03;4992168;28;20073;-76
2023/11/12 05:25:48;;;;;;;0.80;0.20;;;;;;;6.58;79.06;100684.03;4990976;28;20424;-75
2023/11/12 05:28:15;;;;;;;0.93;0.17;;;;;;;6.56;78.82;100685.75;4991544;28;20116;-75
2023/11/12 05:30:43;;;;;;;0.65;0.10;;;;;;;6.56;78.90;100688.34;4989591;28;20050;-75
2023/11/12 05:33:11;;;;;;;0.68;0.10;;;;;;;6.55;78.95;100687.50;4989141;28;20039;-74
2023/11/12 05:35:38;;;;;;;0.20;0.10;;;;;;;6.52;79.04;100685.78;4990849;28;20133;-75
2023/11/12 05:38:05;;;;;;;1.65;0.10;;;;;;;6.51;79.12;100691.81;4993158;28;20046;-75
2023/11/12 05:40:32;;;;;;;0.68;0.20;;;;;;;6.50;78.49;100692.69;4992670;28;20054;-74
2023/11/12 05:42:59;;;;;;;0.20;0.20;;;;;;;6.48;78.83;100694.41;4989658;28;20491;-74
2023/11/12 05:45:25;;;;;;;2.05;0.10;;;;;;;6.47;78.61;100694.44;4990807;28;20042;-74
2023/11/12 05:47:53;;;;;;;1.55;0.20;;;;;;;6.45;78.71;100701.34;4985866;28;20046;-74
2023/11/12 05:50:23;;;;;;;0.15;0.10;;;;;;;6.43;79.05;100698.78;4992580;28;20054;-73
2023/11/12 05:52:50;;;;;;;0.50;0.17;;;;;;;6.42;78.78;100699.63;4989468;28;20190;-74
2023/11/12 05:55:18;;;;;;;1.30;0.25;;;;;;;6.41;78.98;100708.28;4991504;28;20050;-74
2023/11/12 05:57:45;;;;;;;3.55;0.20;;;;;;;6.26;78.98;100691.03;4988659;28;20104;-74
2023/11/12 06:00:13;;;;;;;0.77;0.10;;;;;;;6.28;79.04;100688.41;4985514;28;20046;-74
2023/11/12 06:02:41;;;;;;;4.22;0.10;;;;;;;6.35;79.02;100710.91;4991240;28;20057;-74
2023/11/12 06:05:09;;;;;;;0.52;0.20;;;;;;;6.34;79.16;100709.16;4990938;28;20042;-73
2023/11/12 06:07:37;;;;;;;1.05;0.17;;;;;;;6.34;79.15;100703.09;4988362;28;20419;-74
2023/11/12 06:10:04;;;;;;;0.68;0.20;;;;;;;6.32;79.12;100708.31;4987602;28;20054;-73
2023/11/12 06:12:31;;;;;;;1.65;0.30;;;;;;;6.31;78.98;100706.56;4988860;28;20050;-74
2023/11/12 06:14:58;;;;;;;0.20;0.20;;;;;;;6.17;78.92;100687.56;4991276;28;20042;-74
2023/11/12 06:17:25;;;;;;;0.65;0.20;;;;;;;6.29;78.98;100704.00;4988682;28;20084;-74
2023/11/12 06:19:52;;;;;;;0.20;0.20;;;;;;;6.29;78.85;100710.91;4991601;28;20050;-74
2023/11/12 06:22:20;;;;;;;0.38;0.20;;;;;;;6.23;79.02;100701.41;4989780;28;20070;-73
2023/11/12 06:24:48;;;;;;;0.20;0.20;;;;;;;6.26;78.83;100705.69;4990978;28;20042;-73
2023/11/12 06:27:15;;;;;;;0.28;0.15;;;;;;;6.25;78.84;100709.19;4990039;28;20475;-74
2023/11/12 06:29:43;;;;;;;0.20;0.20;;;;;;;6.24;78.67;100710.06;4990039;28;20137;-74
2023/11/12 06:32:09;;;;;;;0.22;0.20;;;;;;;6.22;79.07;100709.19;4989855;28;20042;-74
2023/11/12 06:34:36;;;;;;;0.20;0.20;;;;;;;6.21;78.63;100702.28;4988025;28;20042;-73
2023/11/12 06:37:03;;;;;;;0.40;0.20;;;;;;;6.21;79.07;100702.28;4988410;28;20050;-74
2023/11/12 06:39:31;;;;;;;0.40;0.20;;;;;;;6.20;79.01;100695.34;4987502;28;20096;-74
2023/11/12 06:41:59;;;;;;;0.45;0.20;;;;;;;6.19;78.91;100698.81;4990282;28;20042;-74
2023/11/12 06:44:26;;;;;;;0.55;0.20;;;;;;;6.19;78.73;100706.59;4985907;28;20049;-74
2023/11/12 06:46:53;;;;;;;1.88;0.17;;;;;;;6.18;78.49;100707.47;4989016;28;20097;-74
2023/11/12 06:49:19;;;;;;;0.30;0.20;;;;;;;6.17;79.13;100706.59;4984836;28;20050;-74
2023/11/12 06:51:46;;;;;;;1.95;0.20;;;;;;;6.16;78.85;100709.19;4988757;28;20053;-74
2023/11/12 06:54:13;;;;;;;4.55;0.30;;;;;;;6.14;78.75;100711.78;4988123;28;20043;-74
2023/11/12 06:56:40;;;;;;;0.38;0.10;;;;;;;6.15;78.87;100710.03;4988629;28;20718;-74
2023/11/12 06:59:08;;;;;;;0.50;0.20;;;;;;;6.13;79.05;100704.88;4989695;28;20126;-74
2023/11/12 07:01:37;;;;;;;0.47;0.20;;;;;;;6.13;79.11;100715.25;4987154;28;20440;-74
2023/11/12 07:04:04;;;;;;;0.88;0.30;;;;;;;6.08;79.26;100709.19;4990344;28;20057;-74
2023/11/12 07:06:31;;;;;;;0.55;0.15;;;;;;;6.11;79.04;100710.94;4989756;28;20543;-74
2023/11/12 07:08:58;;;;;;;0.20;0.10;;;;;;;6.11;79.17;100713.53;4987022;28;20053;-74
2023/11/12 07:11:25;;;;;;;0.50;0.20;;;;;;;6.07;78.97;100710.94;4985233;28;20054;-73
2023/11/12 07:13:52;;;;;;;0.85;0.20;;;;;;;6.02;79.22;100699.69;4986869;28;20057;-74
2023/11/12 07:16:21;;;;;;;1.85;0.20;;;;;;;6.07;79.09;100710.06;4988835;28;20046;-74
2023/11/12 07:18:47;;;;;;;1.40;0.10;;;;;;;6.07;78.82;100710.94;4988681;28;20061;-74
2023/11/12 07:21:23;;;;;;;0.50;0.10;;;;;;;6.05;79.16;100712.66;4990951;28;20050;-73
2023/11/12 07:23:50;;;;;;;1.17;0.10;;;;;;;6.06;79.26;100714.41;4987290;28;20050;-74
2023/11/12 07:26:17;;;;;;;0.20;0.10;;;;;;;6.06;79.27;100714.41;4987821;28;20060;-74
2023/11/12 07:28:44;;;;;;;0.50;0.10;;;;;;;6.03;78.78;100711.81;4987013;28;20078;-73
2023/11/12 07:31:11;;;;;;;0.40;0.20;;;;;;;6.03;78.87;100711.81;4987232;28;20056;-73
2023/11/12 07:33:40;;;;;;;2.95;0.20;;;;;;;6.02;78.90;100712.66;4989268;28;20047;-74
2023/11/12 07:36:07;;;;;;;0.30;0.10;;;;;;;6.01;79.30;100704.91;4987602;28;20042;-74
2023/11/12 07:38:35;;;;;;;0.10;0.00;;;;;;;5.96;79.16;100697.13;4988445;28;20050;-74
2023/11/12 07:41:03;;;;;;;0.15;0.10;;;;;;;5.99;79.05;100712.66;4988553;28;20051;-74
2023/11/12 07:43:29;;;;;;;0.20;0.00;;;;;;;5.98;78.94;100708.34;4989014;28;20110;-74
2023/11/12 07:45:56;;;;;;;0.43;0.13;;;;;;;5.98;78.84;100704.91;4986785;28;20049;-74
2023/11/12 07:48:23;;;;;;;0.10;0.10;;;;;;;5.92;78.88;100695.38;4989091;28;20057;-75
2023/11/12 07:50:52;;;;;;;0.25;0.10;;;;;;;5.99;78.81;100709.22;4985191;28;20065;-74
2023/11/12 07:53:20;;;;;;;1.35;0.10;;;;;;;5.99;78.93;100706.63;4988849;28;20095;-74
2023/11/12 07:55:47;;;;;;;0.10;0.10;;;;;;;5.99;78.72;100710.06;4988461;28;20112;-75
2023/11/12 07:58:14;;;;;;;1.35;0.10;;;;;;;5.98;78.64;100710.94;4987874;28;20057;-75
2023/11/12 08:00:41;;;;;;;0.50;0.10;;;;;;;5.99;78.58;100715.25;4989027;28;20510;-80
2023/11/12 08:03:08;;;;;;;0.63;0.10;;;;;;;5.99;78.91;100712.66;4987585;28;20073;-70
2023/11/12 08:05:34;;;;;;;0.20;0.10;;;;;;;5.99;78.93;100712.66;4987321;28;20054;-70
2023/11/12 08:08:03;;;;;;;0.10;0.10;;;;;;;5.99;78.73;100704.88;4988210;28;20054;-70
2023/11/12 08:10:29;;;;;;;0.10;0.08;;;;;;;5.98;78.86;100700.59;4988776;28;20050;-70
2023/11/12 08:12:58;;;;;;;0.60;0.10;;;;;;;5.99;78.97;100712.66;4987236;28;20061;-70
2023/11/12 08:15:26;;;;;;;0.10;0.10;;;;;;;5.98;79.16;100708.34;4986093;28;20080;-70
2023/11/12 08:17:53;;;;;;;0.20;0.20;;;;;;;5.98;78.93;100700.59;4984445;28;20461;-70
2023/11/12 08:20:19;;;;;;;0.10;0.10;;;;;;;5.99;78.80;100707.47;4984194;28;20046;-70
2023/11/12 08:22:47;;;;;;;0.13;0.10;;;;;;;5.99;78.65;100704.88;4985781;28;20057;-70
2023/11/12 08:25:15;;;;;;;0.47;0.08;;;;;;;5.98;79.07;100700.59;4984091;28;20462;-70
2023/11/12 08:27:43;;;;;;;0.08;0.00;;;;;;;6.00;78.88;100704.00;4985496;28;20411;-70
2023/11/12 08:30:10;;;;;;;0.50;0.00;;;;;;;5.99;79.05;100698.84;4986281;28;20535;-70
2023/11/12 08:32:37;;;;;;;1.30;0.08;;;;;;;6.01;78.85;100704.91;4987996;28;20054;-70
2023/11/12 08:35:04;;;;;;;0.10;0.10;;;;;;;6.01;78.87;100700.56;4986016;28;20043;-69
2023/11/12 08:37:31;;;;;;;0.73;0.00;;;;;;;6.02;78.87;100702.28;4987570;28;20079;-70
2023/11/12 08:39:58;;;;;;;0.00;0.00;;;;;;;6.03;78.64;100697.97;4986906;28;20514;-70
2023/11/12 08:42:27;;;;;;;0.00;0.00;;;;;;;6.04;78.76;100689.34;4988799;28;20047;-69
2023/11/12 08:44:54;;;;;;;0.00;0.00;;;;;;;6.05;78.42;100696.25;4987598;28;20097;-69
2023/11/12 08:47:21;;;;;;;0.00;0.00;;;;;;;6.06;78.95;100692.78;4988095;28;20503;-69
2023/11/12 08:49:48;;;;;;;0.00;0.00;;;;;;;6.05;78.85;100691.06;4987183;28;20495;-69
2023/11/12 08:52:15;;;;;;;0.22;0.08;;;;;;;5.98;79.04;100672.06;4986032;28;20054;-71
2023/11/12 08:54:42;;;;;;;0.00;0.00;;;;;;;6.08;78.91;100697.09;4986147;28;20046;-70
2023/11/12 08:57:10;;;;;;;0.10;0.05;;;;;;;6.11;78.99;100697.97;4988028;28;20738;-70
2023/11/12 08:59:39;;;;;;;0.10;0.10;;;;;;;6.11;78.66;100696.22;4985938;28;20142;-70
2023/11/12 09:02:06;;;;;;;0.28;0.10;;;;;;;6.11;78.70;100698.81;4990016;28;20058;-70
2023/11/12 09:04:34;;;;;;;0.10;0.10;;;;;;;6.10;78.78;100691.91;4990380;28;20058;-70
2023/11/12 09:07:01;;;;;;;0.10;0.10;;;;;;;6.13;78.72;100698.84;4991126;28;20134;-70
2023/11/12 09:09:28;;;;;;;0.00;0.00;;;;;;;6.14;78.65;100692.78;4989636;28;20047;-71
2023/11/12 09:11:56;;;;;;;0.22;0.00;;;;;;;6.13;78.40;100698.84;4990398;28;20627;-73
2023/11/12 09:14:23;;;;;;;0.00;0.00;;;;;;;6.13;78.47;100698.84;4988834;28;20057;-74
2023/11/12 09:16:51;;;;;;;0.20;0.10;;;;;;;6.15;78.24;100697.06;4990045;28;20050;-73
2023/11/12 09:19:18;;;;;;;0.68;0.10;;;;;;;6.16;78.48;100698.81;4988883;28;20053;-74
2023/11/12 09:21:44;;;;;;;0.03;0.00;;;;;;;6.14;78.08;100691.03;4987483;28;20046;-73
2023/11/12 09:24:13;;;;;;;0.60;0.60;;;;;;;6.15;78.30;100702.25;4989799;28;20053;-73
2023/11/12 09:26:40;;;;;;;0.10;0.00;;;;;;;6.14;77.94;100700.53;4988268;28;20058;-73
2023/11/12 09:29:07;;;;;;;1.98;0.25;;;;;;;6.14;78.23;100691.03;4990048;28;20062;-73
2023/11/12 09:31:34;;;;;;;0.10;0.00;;;;;;;6.16;77.93;100704.88;4989382;28;20054;-73
2023/11/12 09:34:02;;;;;;;1.85;0.10;;;;;;;6.16;78.32;100698.81;4991787;28;20042;-75
2023/11/12 09:36:29;;;;;;;0.10;0.00;;;;;;;6.14;78.26;100700.53;4992500;28;20046;-73
2023/11/12 09:38:56;;;;;;;0.00;0.00;;;;;;;6.15;78.15;100702.25;4986814;28;20047;-73
2023/11/12 09:41:23;;;;;;;0.00;0.00;;;;;;;6.15;77.90;100697.97;4982702;28;20108;-73
2023/11/12 09:43:51;;;;;;;0.10;0.00;;;;;;;6.16;77.82;100693.63;4988151;28;20385;-73
2023/11/12 09:46:22;;;;;;;0.00;0.00;;;;;;;6.16;78.18;100704.00;4986429;28;20416;-74
2023/11/12 09:48:49;;;;;;;0.10;0.10;;;;;;;6.16;77.95;100698.81;4987181;28;20046;-74
2023/11/12 09:51:18;;;;;;;0.90;0.10;;;;;;;6.16;77.81;100691.91;4984762;28;20046;-73
2023/11/12 09:53:47;;;;;;;0.25;0.10;;;;;;;6.15;78.05;100689.28;4988796;28;20054;-73
2023/11/12 09:56:14;;;;;;;0.10;0.05;;;;;;;6.16;77.76;100689.31;4985108;28;20053;-74
2023/11/12 09:58:42;;;;;;;0.10;0.05;;;;;;;6.16;77.85;100685.84;4988708;28;20054;-73
2023/11/12 10:01:11;;;;;;;0.00;0.00;;;;;;;6.16;77.46;100688.44;4988821;28;20042;-80
2023/11/12 10:03:39;;;;;;;2.50;0.08;;;;;;;6.14;77.78;100685.00;4992600;28;20049;-81
2023/11/12 10:06:06;;;;;;;3.83;0.10;;;;;;;6.16;77.59;100693.63;4990407;28;20514;-80
2023/11/12 10:08:35;;;;;;;0.20;0.10;;;;;;;6.16;77.35;100691.91;4990972;28;20046;-81
2023/11/12 10:11:17;;;;;;;0.10;0.10;;;;;;;6.16;77.27;100698.81;4986325;28;20050;-82
2023/11/12 10:13:44;;;;;;;0.10;0.00;;;;;;;6.15;77.33;100692.78;4986646;28;20048;-81
2023/11/12 10:16:23;;;;;;;1.85;0.10;;;;;;;6.15;77.45;100697.06;4992395;28;20407;-81
2023/11/12 10:18:50;;;;;;;0.10;0.10;;;;;;;6.12;77.73;100697.97;4989981;28;20101;-80
2023/11/12 10:21:17;;;;;;;0.13;0.10;;;;;;;6.13;77.44;100698.84;4991500;28;20046;-80
2023/11/12 10:23:45;;;;;;;0.10;0.10;;;;;;;6.11;77.66;100697.97;4989334;28;20479;-80
2023/11/12 10:26:13;;;;;;;0.10;0.08;;;;;;;6.08;77.54;100702.28;4977819;28;20046;-80
2023/11/12 10:28:40;;;;;;;0.10;0.10;;;;;;;6.07;77.46;100697.13;4987682;28;20050;-80
2023/11/12 10:31:13;;;;;;;0.73;0.10;;;;;;;6.06;77.15;100701.44;4990078;28;20137;-80
2023/11/12 10:33:41;;;;;;;0.20;0.10;;;;;;;6.05;77.52;100697.09;4992629;28;20062;-81
2023/11/12 10:36:10;;;;;;;0.22;0.00;;;;;;;6.04;77.41;100695.38;4987991;28;20042;-81
2023/11/12 10:38:49;;;;;;;1.55;0.10;;;;;;;6.05;77.19;100696.25;4992050;28;20073;-81
2023/11/12 10:41:17;;;;;;;0.10;0.10;;;;;;;6.03;77.19;100696.25;4989752;28;20050;-80
2023/11/12 10:43:57;;;;;;;6.80;0.10;;;;;;;6.02;77.44;100694.50;4982786;28;20051;-80
2023/11/12 10:46:26;;;;;;;2.00;0.10;;;;;;;6.00;77.05;100697.97;4987602;28;20050;-81
2023/11/12 10:48:55;;;;;;;2.25;0.20;;;;;;;5.99;77.34;100707.47;4992005;28;20522;-81
2023/11/12 10:51:22;;;;;;;0.63;0.10;;;;;;;5.99;77.31;100701.44;4990197;28;20050;-81
2023/11/12 10:53:56;;;;;;;0.35;0.10;;;;;;;5.86;77.26;100675.50;4985206;28;20118;-80
2023/11/12 10:56:23;;;;;;;0.20;0.10;;;;;;;5.92;77.05;100679.81;4976122;28;20047;-80
2023/11/12 10:58:54;;;;;;;8.18;0.10;;;;;;;5.96;77.10;100691.06;4987529;28;20054;-80
2023/11/12 11:01:21;;;;;;;0.20;0.10;;;;;;;5.94;76.96;100683.28;4974731;28;20081;-80
2023/11/12 11:03:50;;;;;;;1.08;0.20;;;;;;;5.94;77.10;100680.69;4986103;28;20050;-80
2023/11/12 11:06:18;;;;;;;0.32;0.10;;;;;;;5.92;77.31;100674.63;4994933;28;20052;-80
2023/11/12 11:08:45;;;;;;;0.20;0.10;;;;;;;5.90;77.23;100684.13;4995205;28;20048;-80
2023/11/12 11:11:14;;;;;;;1.90;0.10;;;;;;;5.91;77.07;100677.22;4988557;28;20046;-75
2023/11/12 11:13:41;;;;;;;0.17;0.10;;;;;;;5.91;77.35;100680.66;4982978;28;20407;-74
2023/11/12 11:16:09;;;;;;;0.77;0.20;;;;;;;5.90;77.32;100681.53;4983293;28;20061;-76
2023/11/12 11:18:52;;;;;;;0.20;0.13;;;;;;;5.91;77.11;100685.00;4984413;28;20499;-75
2023/11/12 11:21:20;;;;;;;0.25;0.20;;;;;;;5.89;77.19;100685.00;4981892;28;20046;-74
2023/11/12 11:23:49;;;;;;;0.45;0.20;;;;;;;5.88;77.03;100693.63;4983644;28;20053;-74
2023/11/12 11:26:29;;;;;;;0.57;0.15;;;;;;;5.84;76.62;100691.91;4985477;28;20054;-74
2023/11/12 11:29:13;;;;;;;0.45;0.10;;;;;;;5.83;77.00;100690.16;4988764;28;20081;-74
2023/11/12 11:31:43;;;;;;;0.15;0.10;;;;;;;5.82;76.88;100693.63;4985774;28;20050;-76
2023/11/12 11:34:12;;;;;;;0.10;0.10;;;;;;;5.62;77.15;100655.63;4990063;28;20096;-76
2023/11/12 11:36:42;;;;;;;1.27;0.10;;;;;;;5.81;77.00;100672.03;4990155;28;20046;-77